LEXJ/SDR METAR and TAF weather

Enter ICAO airport designator
Station Type Date Time Source
LEXJ METAR 2020/01/19 14:30 UTC NOAA

LEXJ 191430Z 06012G22KT 020V110 9999 SCT038 SCT050 11/03 Q1036


Station Type Date Time Source
LEXJ Decoded METAR 2020/01/19 14:30 UTC NOAA

Santander / Parayas, Spain (LEXJ) 43-26N 003-49W 9M
Jan 19, 2020 - 09:30 AM EST / 2020.01.19 1430 UTC
Wind: from the ENE (060 degrees) at 14 MPH (12 KT) gusting to 25 MPH (22 KT) (direction variable):0
Visibility: greater than 7 mile(s):0
Sky conditions: partly cloudy
Temperature: 51 F (11 C)
Dew Point: 37 F (3 C)
Relative Humidity: 57%
Pressure (altimeter): 30.59 in. Hg (1036 hPa)
ob: LEXJ 191430Z 06012G22KT 020V110 9999 SCT038 SCT050 11/03 Q1036
cycle: 14

Station Type Date Time Source
LEXJ TAF 2020/01/19 15:30 UTC NOAA

TAF LEXJ 191400Z 1915/2015 06015KT 9999 SCT035 TX12/1915Z TN07/2006Z
TEMPO 1915/1924 06015G27KT

Example: see airport list